Time;durP1;ratioP1;P1;durP2;ratioP2;P2;SDS_P1;SDS_P2;PMS_P1;PMS_P2;Temp;Humidity;BMP_temperature;BMP_pressure;BME280_temperature;BME280_humidity;BME280_pressure;Samples;Min_cycle;Max_cycle;Signal;HPM_P1;HPM_P2
2021/11/23 00:00:08;;;;;;;3.40;2.47;;;23.50;45.10;;;;;;6151134;28;80741;-64
2021/11/23 00:03:13;;;;;;;3.60;2.25;;;23.50;44.80;;;;;;6144773;28;80701;-64
2021/11/23 00:06:14;;;;;;;4.53;2.83;;;23.50;44.60;;;;;;6148027;28;80807;-64
2021/11/23 00:09:14;;;;;;;5.05;2.63;;;23.50;45.10;;;;;;6151543;28;80178;-65
2021/11/23 00:12:15;;;;;;;3.85;2.47;;;23.50;44.80;;;;;;6146560;28;80744;-65
2021/11/23 00:15:15;;;;;;;3.47;2.40;;;23.50;45.20;;;;;;6151249;28;80478;-67
2021/11/23 00:18:16;;;;;;;3.17;2.35;;;23.50;45.20;;;;;;6148585;28;81157;-67
2021/11/23 00:21:16;;;;;;;3.78;2.45;;;23.50;44.50;;;;;;6149927;28;81416;-67
2021/11/23 00:24:17;;;;;;;4.05;2.17;;;23.50;44.90;;;;;;6149324;28;81173;-67
2021/11/23 00:27:17;;;;;;;3.25;2.30;;;23.50;44.60;;;;;;6151807;28;83695;-67
2021/11/23 00:30:18;;;;;;;4.82;2.75;;;23.50;44.40;;;;;;6146373;28;83773;-67
2021/11/23 00:33:18;;;;;;;2.53;2.03;;;23.50;44.40;;;;;;6156726;28;80666;-66
2021/11/23 00:36:19;;;;;;;3.03;2.22;;;23.50;44.40;;;;;;6151605;28;80676;-67
2021/11/23 00:39:19;;;;;;;4.65;2.70;;;23.50;44.40;;;;;;6148675;28;80697;-67
2021/11/23 00:42:20;;;;;;;2.63;1.83;;;23.50;44.50;;;;;;6150121;28;80579;-67
2021/11/23 00:45:20;;;;;;;3.60;2.15;;;23.50;44.40;;;;;;6145243;28;80412;-67
2021/11/23 00:48:21;;;;;;;3.70;2.33;;;23.50;44.80;;;;;;6150762;28;80755;-67
2021/11/23 00:51:21;;;;;;;5.32;2.60;;;23.50;46.00;;;;;;6153157;28;81449;-67
2021/11/23 00:54:22;;;;;;;3.03;2.00;;;23.40;44.90;;;;;;6145293;28;80544;-67
2021/11/23 00:57:23;;;;;;;2.92;1.85;;;23.40;45.00;;;;;;6148795;28;80423;-67
2021/11/23 01:00:23;;;;;;;3.08;2.30;;;23.40;45.40;;;;;;6153167;28;80879;-67
2021/11/23 01:03:24;;;;;;;5.13;2.30;;;23.40;45.20;;;;;;6147641;28;80387;-67
2021/11/23 01:06:24;;;;;;;3.83;2.25;;;23.40;45.30;;;;;;6150185;28;80313;-67
2021/11/23 01:09:25;;;;;;;4.05;2.20;;;23.40;44.90;;;;;;6154588;28;81748;-67
2021/11/23 01:12:25;;;;;;;3.05;2.25;;;23.40;45.60;;;;;;6147686;28;80390;-67
2021/11/23 01:15:27;;;;;;;2.90;2.10;;;23.40;46.20;;;;;;6149567;28;80471;-67
2021/11/23 01:18:27;;;;;;;2.90;2.15;;;23.40;46.50;;;;;;6154738;28;81243;-67
2021/11/23 01:21:28;;;;;;;3.33;2.25;;;23.40;44.90;;;;;;6154180;28;83577;-67
2021/11/23 01:24:28;;;;;;;4.90;2.80;;;23.40;45.10;;;;;;6152123;28;80540;-67
2021/11/23 01:27:29;;;;;;;3.08;2.10;;;23.40;44.50;;;;;;6148474;28;82723;-67
2021/11/23 01:30:29;;;;;;;5.15;2.90;;;23.40;44.80;;;;;;6153925;28;83389;-67
2021/11/23 01:33:30;;;;;;;4.18;2.78;;;23.40;44.90;;;;;;6151423;28;80747;-67
2021/11/23 01:36:30;;;;;;;6.13;2.85;;;23.30;44.90;;;;;;6151446;28;80998;-66
2021/11/23 01:39:31;;;;;;;5.93;2.55;;;23.30;44.30;;;;;;6151995;28;81515;-66
2021/11/23 01:42:31;;;;;;;4.70;2.65;;;23.40;44.00;;;;;;6158056;28;80528;-66
2021/11/23 01:45:32;;;;;;;3.80;2.80;;;23.30;44.10;;;;;;6152370;28;80684;-66
2021/11/23 01:48:33;;;;;;;5.07;2.40;;;23.30;43.80;;;;;;6158345;28;81507;-66
2021/11/23 01:51:33;;;;;;;3.88;2.67;;;23.30;44.50;;;;;;6155411;28;80465;-66
2021/11/23 01:54:34;;;;;;;3.58;2.50;;;23.40;44.10;;;;;;6149901;28;81153;-66
2021/11/23 01:57:35;;;;;;;4.70;2.90;;;23.30;43.90;;;;;;6146595;28;80530;-66
2021/11/23 02:00:35;;;;;;;3.85;2.72;;;23.30;43.60;;;;;;6154433;28;81135;-67
2021/11/23 02:03:36;;;;;;;4.10;2.90;;;23.30;44.00;;;;;;6151911;28;81725;-66
2021/11/23 02:06:36;;;;;;;5.20;3.03;;;23.30;44.00;;;;;;6155235;28;80391;-66
2021/11/23 02:09:37;;;;;;;6.13;3.55;;;23.30;43.80;;;;;;6154051;28;81111;-66
2021/11/23 02:12:37;;;;;;;5.38;3.42;;;23.30;44.40;;;;;;6149879;28;80228;-67
2021/11/23 02:15:38;;;;;;;6.93;3.72;;;23.30;44.50;;;;;;6157795;28;81246;-67
2021/11/23 02:18:38;;;;;;;7.22;4.18;;;23.30;44.90;;;;;;6152726;28;81500;-66
2021/11/23 02:21:39;;;;;;;6.60;3.83;;;23.30;44.60;;;;;;6152511;28;81447;-66
2021/11/23 02:24:39;;;;;;;5.13;3.00;;;23.30;44.00;;;;;;6155536;28;80502;-67
2021/11/23 02:27:40;;;;;;;7.00;3.75;;;23.30;43.70;;;;;;6153180;28;81709;-66
2021/11/23 02:30:40;;;;;;;6.05;3.67;;;23.30;43.70;;;;;;6156714;28;80453;-65
2021/11/23 02:33:41;;;;;;;5.55;3.28;;;23.30;43.60;;;;;;6152022;28;80231;-65
2021/11/23 02:36:42;;;;;;;10.02;3.88;;;23.30;43.90;;;;;;6155737;28;82706;-65
2021/11/23 02:39:42;;;;;;;7.60;3.47;;;23.30;44.40;;;;;;6154572;28;82382;-65
2021/11/23 02:42:43;;;;;;;6.18;3.97;;;23.30;43.70;;;;;;6146077;28;81720;-66
2021/11/23 02:45:45;;;;;;;7.88;4.40;;;23.30;44.20;;;;;;6159583;28;80714;-67
2021/11/23 02:48:46;;;;;;;7.75;4.15;;;23.30;44.40;;;;;;6154487;28;80898;-66
2021/11/23 02:51:46;;;;;;;5.18;3.63;;;23.30;44.10;;;;;;6152880;28;80697;-66
2021/11/23 02:54:47;;;;;;;8.35;4.10;;;23.30;44.60;;;;;;6152958;28;80971;-66
2021/11/23 02:57:47;;;;;;;8.95;4.40;;;23.20;44.00;;;;;;6156658;28;80659;-66
2021/11/23 03:00:48;;;;;;;9.88;4.95;;;23.30;44.00;;;;;;6152161;28;80202;-66
2021/11/23 03:03:49;;;;;;;11.85;4.28;;;23.30;43.90;;;;;;6152119;28;80735;-66
2021/11/23 03:06:49;;;;;;;7.60;4.03;;;23.20;44.30;;;;;;6148047;28;80256;-67
2021/11/23 03:09:50;;;;;;;6.95;4.45;;;23.30;43.90;;;;;;6151879;28;80804;-67
2021/11/23 03:12:50;;;;;;;9.32;5.20;;;23.20;44.20;;;;;;6149526;28;80723;-67
2021/11/23 03:15:51;;;;;;;8.52;5.10;;;23.20;42.80;;;;;;6150799;28;80695;-67
2021/11/23 03:18:51;;;;;;;9.10;4.18;;;23.20;42.20;;;;;;6147370;28;80752;-66
2021/11/23 03:21:52;;;;;;;8.50;4.70;;;23.30;42.40;;;;;;6157482;28;81465;-66
2021/11/23 03:24:52;;;;;;;8.63;4.88;;;23.30;41.90;;;;;;6154648;28;80489;-67
2021/11/23 03:27:53;;;;;;;8.75;4.90;;;23.30;41.70;;;;;;6152669;28;81723;-67
2021/11/23 03:30:53;;;;;;;9.25;5.18;;;23.40;41.60;;;;;;6153795;28;82060;-66
2021/11/23 03:33:54;;;;;;;9.00;5.20;;;23.40;41.50;;;;;;6148521;28;80831;-66
2021/11/23 03:36:54;;;;;;;7.75;4.63;;;23.40;41.50;;;;;;6150862;28;81654;-64
2021/11/23 03:39:55;;;;;;;8.50;4.70;;;23.50;41.30;;;;;;6151640;28;80469;-66
2021/11/23 03:42:55;;;;;;;9.32;4.90;;;23.50;41.50;;;;;;6154174;28;83180;-66
2021/11/23 03:45:56;;;;;;;10.00;5.80;;;23.50;41.10;;;;;;6153637;28;80496;-66
2021/11/23 03:48:56;;;;;;;8.77;5.05;;;23.60;41.10;;;;;;6154585;28;82534;-66
2021/11/23 03:51:57;;;;;;;10.15;5.82;;;23.60;40.90;;;;;;6156922;28;80511;-67
2021/11/23 03:54:57;;;;;;;8.38;4.93;;;23.60;40.90;;;;;;6151478;28;81657;-66
2021/11/23 03:57:58;;;;;;;8.40;4.70;;;23.60;40.80;;;;;;6153851;28;80215;-66
2021/11/23 04:00:58;;;;;;;8.32;4.82;;;23.60;40.60;;;;;;6146970;28;80262;-68
2021/11/23 04:03:59;;;;;;;7.38;4.45;;;23.60;40.60;;;;;;6151290;28;81441;-68
2021/11/23 04:06:59;;;;;;;9.18;5.30;;;23.60;40.80;;;;;;6147972;28;81277;-67
2021/11/23 04:10:00;;;;;;;8.65;4.82;;;23.60;40.60;;;;;;6150016;28;80557;-67
2021/11/23 04:13:00;;;;;;;9.32;5.03;;;23.60;40.70;;;;;;6150517;28;81489;-67
2021/11/23 04:16:01;;;;;;;7.28;4.75;;;23.70;40.50;;;;;;6152374;28;80571;-67
2021/11/23 04:19:01;;;;;;;8.73;4.78;;;23.70;40.40;;;;;;6147813;28;81429;-67
2021/11/23 04:22:02;;;;;;;6.05;4.07;;;23.70;40.40;;;;;;6154236;28;80488;-67
2021/11/23 04:25:03;;;;;;;8.00;4.15;;;23.70;40.20;;;;;;6151338;28;81005;-67
2021/11/23 04:28:03;;;;;;;5.93;3.67;;;23.70;40.20;;;;;;6148049;28;80767;-66
2021/11/23 04:31:04;;;;;;;6.20;4.00;;;23.70;40.10;;;;;;6154582;28;81972;-67
2021/11/23 04:34:04;;;;;;;5.63;3.35;;;23.70;40.00;;;;;;6151783;28;81137;-67
2021/11/23 04:37:05;;;;;;;5.45;3.63;;;23.70;40.00;;;;;;6148697;28;81032;-68
2021/11/23 04:40:05;;;;;;;5.88;3.33;;;23.70;40.00;;;;;;6155290;28;80505;-66
2021/11/23 04:43:06;;;;;;;5.22;2.92;;;23.70;40.20;;;;;;6151845;28;81655;-66
2021/11/23 04:46:07;;;;;;;4.30;2.88;;;23.80;40.50;;;;;;6158087;28;81005;-65
2021/11/23 04:49:07;;;;;;;6.13;2.55;;;23.80;40.20;;;;;;6162071;28;81246;-67
2021/11/23 04:52:08;;;;;;;4.97;2.55;;;23.80;40.10;;;;;;6154657;28;81002;-65
2021/11/23 04:55:08;;;;;;;4.80;2.83;;;23.80;39.80;;;;;;6156371;28;81500;-66
2021/11/23 04:58:09;;;;;;;3.67;2.45;;;23.80;39.80;;;;;;6168385;28;80713;-65
2021/11/23 05:01:09;;;;;;;1.98;1.70;;;23.80;41.00;;;;;;6154130;28;80876;-67
2021/11/23 05:04:11;;;;;;;3.03;2.05;;;23.70;41.90;;;;;;6164465;28;80692;-65
2021/11/23 05:07:11;;;;;;;1.55;1.42;;;23.60;42.60;;;;;;6156421;28;82551;-65
2021/11/23 05:10:13;;;;;;;1.75;1.40;;;23.60;43.00;;;;;;6151345;28;80239;-67
2021/11/23 05:13:14;;;;;;;1.70;1.05;;;23.60;43.70;;;;;;6155025;28;82212;-67
2021/11/23 05:16:14;;;;;;;2.53;1.30;;;23.60;43.90;;;;;;6159920;28;86623;-65
2021/11/23 05:19:15;;;;;;;1.95;1.50;;;23.60;44.50;;;;;;6163040;28;81146;-65
2021/11/23 05:22:15;;;;;;;5.85;1.65;;;23.60;45.20;;;;;;6157458;28;80990;-64
2021/11/23 05:25:16;;;;;;;2.95;1.20;;;23.50;45.70;;;;;;6154635;28;82685;-66
2021/11/23 05:28:16;;;;;;;1.45;1.25;;;23.60;45.80;;;;;;6157280;28;82148;-66
2021/11/23 05:31:17;;;;;;;1.20;1.00;;;23.50;46.20;;;;;;6157401;28;81146;-66
2021/11/23 05:34:17;;;;;;;3.85;1.05;;;23.50;46.40;;;;;;6154789;28;81350;-66
2021/11/23 05:37:18;;;;;;;2.88;1.58;;;23.50;47.20;;;;;;6146528;28;80446;-67
2021/11/23 05:40:19;;;;;;;1.58;1.20;;;23.60;47.60;;;;;;6155098;28;81286;-66
2021/11/23 05:43:19;;;;;;;2.50;1.10;;;23.60;47.60;;;;;;6153360;28;81343;-67
2021/11/23 05:46:20;;;;;;;10.80;2.28;;;23.50;48.20;;;;;;6152194;28;80690;-67
2021/11/23 05:49:20;;;;;;;14.85;7.15;;;23.50;48.70;;;;;;6154345;28;80593;-67
2021/11/23 05:52:21;;;;;;;35.53;12.80;;;23.50;48.80;;;;;;6154413;28;80511;-68
2021/11/23 05:55:21;;;;;;;71.78;28.70;;;23.50;48.80;;;;;;6144604;28;83035;-68
2021/11/23 05:58:22;;;;;;;112.22;45.03;;;23.50;49.20;;;;;;6147298;28;83408;-67
2021/11/23 06:01:22;;;;;;;129.02;51.28;;;23.50;49.00;;;;;;6146480;28;83087;-67
2021/11/23 06:04:23;;;;;;;99.93;41.10;;;23.60;49.10;;;;;;6150123;28;84094;-66
2021/11/23 06:07:23;;;;;;;123.05;49.67;;;23.60;48.70;;;;;;6148101;28;82837;-67
2021/11/23 06:10:24;;;;;;;103.93;41.22;;;23.60;48.40;;;;;;6153269;28;83172;-69
2021/11/23 06:13:25;;;;;;;95.32;37.25;;;23.70;48.10;;;;;;6153085;28;82877;-63
2021/11/23 06:16:26;;;;;;;114.72;44.63;;;23.70;47.80;;;;;;6145505;28;82820;-65
2021/11/23 06:19:27;;;;;;;101.47;39.58;;;23.60;47.90;;;;;;6154062;28;83468;-65
2021/11/23 06:22:27;;;;;;;105.57;41.08;;;23.70;47.70;;;;;;6147971;28;83483;-69
2021/11/23 06:25:28;;;;;;;91.15;37.83;;;23.60;47.70;;;;;;6142166;28;83471;-65
2021/11/23 06:28:28;;;;;;;83.07;33.47;;;23.60;47.50;;;;;;6152596;28;83305;-65
2021/11/23 06:31:29;;;;;;;81.88;32.72;;;23.60;47.30;;;;;;6145417;28;82988;-68
2021/11/23 06:34:29;;;;;;;76.55;29.98;;;23.60;47.50;;;;;;6150387;28;83660;-69
2021/11/23 06:37:30;;;;;;;67.85;29.17;;;23.60;47.20;;;;;;6145310;28;84626;-69
2021/11/23 06:40:31;;;;;;;64.28;27.15;;;23.60;47.30;;;;;;6149181;28;83215;-70
2021/11/23 06:43:31;;;;;;;68.95;27.75;;;23.60;47.20;;;;;;6152379;28;85073;-69
2021/11/23 06:46:32;;;;;;;55.33;22.88;;;23.60;46.80;;;;;;6151008;28;83607;-67
2021/11/23 06:49:32;;;;;;;56.95;23.17;;;23.50;46.70;;;;;;6145630;28;83449;-66
2021/11/23 06:52:33;;;;;;;48.72;20.42;;;23.50;46.30;;;;;;6149548;28;84218;-66
2021/11/23 06:55:33;;;;;;;52.45;22.92;;;23.50;46.50;;;;;;6143111;28;84583;-68
2021/11/23 06:58:34;;;;;;;42.90;18.92;;;23.50;46.50;;;;;;6142262;28;84322;-69
2021/11/23 07:01:35;;;;;;;47.47;17.92;;;23.50;46.50;;;;;;6146352;28;83149;-67
2021/11/23 07:04:35;;;;;;;36.42;16.27;;;23.50;46.70;;;;;;6149735;28;83663;-69
2021/11/23 07:07:36;;;;;;;38.55;16.85;;;23.40;46.60;;;;;;6141414;28;83148;-68
2021/11/23 07:10:38;;;;;;;40.40;16.88;;;23.50;47.00;;;;;;6143571;28;84441;-68
2021/11/23 07:13:38;;;;;;;34.60;15.32;;;23.40;47.10;;;;;;6143236;28;84048;-66
2021/11/23 07:16:39;;;;;;;29.35;13.18;;;23.50;46.40;;;;;;6152103;28;83178;-66
2021/11/23 07:19:40;;;;;;;26.65;12.77;;;23.40;44.50;;;;;;6145974;28;83292;-66
2021/11/23 07:22:40;;;;;;;28.10;11.48;;;23.40;44.80;;;;;;6145850;28;83529;-65
2021/11/23 07:25:41;;;;;;;20.25;9.57;;;23.40;44.90;;;;;;6151022;28;83767;-72
2021/11/23 07:28:41;;;;;;;18.58;9.85;;;23.40;44.80;;;;;;6150210;28;83370;-69
2021/11/23 07:31:42;;;;;;;18.75;8.82;;;23.50;44.20;;;;;;6149756;28;81880;-68
2021/11/23 07:34:43;;;;;;;17.52;8.23;;;23.50;44.50;;;;;;6148846;28;83181;-66
2021/11/23 07:37:44;;;;;;;13.23;7.45;;;23.50;45.00;;;;;;6149469;28;81932;-66
2021/11/23 07:40:46;;;;;;;15.13;6.82;;;23.60;44.30;;;;;;6147834;28;80979;-65
2021/11/23 07:43:47;;;;;;;16.73;6.45;;;23.60;44.00;;;;;;6155885;28;80916;-65
2021/11/23 07:46:47;;;;;;;12.10;5.85;;;23.70;44.20;;;;;;6147779;28;82113;-65
2021/11/23 07:49:48;;;;;;;9.38;5.10;;;23.70;44.20;;;;;;6149927;28;80588;-65
2021/11/23 07:52:48;;;;;;;13.00;5.93;;;23.70;43.80;;;;;;6153458;28;80905;-65
2021/11/23 07:55:49;;;;;;;11.25;5.35;;;23.80;43.90;;;;;;6146993;28;80318;-65
2021/11/23 07:58:50;;;;;;;11.30;5.05;;;23.90;44.00;;;;;;6147397;28;81067;-64
2021/11/23 08:01:51;;;;;;;10.43;4.85;;;23.90;44.00;;;;;;6149712;28;80849;-64
2021/11/23 08:04:51;;;;;;;12.93;5.43;;;24.00;43.80;;;;;;6151431;28;82092;-64
2021/11/23 08:07:52;;;;;;;7.93;4.50;;;24.00;43.50;;;;;;6151413;28;80661;-64
2021/11/23 08:10:53;;;;;;;7.43;3.80;;;24.10;43.30;;;;;;6146356;28;80740;-64
2021/11/23 08:13:53;;;;;;;7.18;4.25;;;24.10;44.00;;;;;;6151194;28;81765;-63
2021/11/23 08:16:55;;;;;;;8.10;4.30;;;24.20;43.40;;;;;;6153620;28;80622;-64
2021/11/23 08:19:57;;;;;;;7.85;4.35;;;24.20;42.80;;;;;;6147116;28;80429;-65
2021/11/23 08:22:57;;;;;;;7.28;4.03;;;24.30;42.70;;;;;;6142886;28;80505;-64
2021/11/23 08:25:58;;;;;;;7.35;4.07;;;24.30;43.00;;;;;;6151116;28;81019;-65
2021/11/23 08:28:58;;;;;;;6.18;3.97;;;24.40;43.00;;;;;;6148002;28;80435;-64
2021/11/23 08:31:59;;;;;;;9.15;4.68;;;24.40;42.90;;;;;;6153180;28;80410;-63
2021/11/23 08:35:00;;;;;;;7.35;4.32;;;24.40;43.00;;;;;;6149704;28;80688;-64
2021/11/23 08:38:00;;;;;;;10.80;4.63;;;24.40;43.00;;;;;;6147416;28;81003;-65
2021/11/23 08:41:01;;;;;;;7.57;4.28;;;24.40;43.10;;;;;;6151038;28;82633;-64
2021/11/23 08:44:01;;;;;;;8.82;4.95;;;24.50;43.20;;;;;;6148477;28;81618;-69
2021/11/23 08:47:02;;;;;;;8.02;4.35;;;24.50;43.10;;;;;;6151378;28;81047;-64
2021/11/23 08:50:02;;;;;;;8.05;4.32;;;24.50;43.10;;;;;;6146762;28;80346;-64
2021/11/23 08:53:07;;;;;;;9.82;4.15;;;24.50;43.00;;;;;;6148277;28;80534;-64
2021/11/23 08:56:08;;;;;;;9.35;4.20;;;24.50;43.20;;;;;;6148189;28;80231;-65
2021/11/23 08:59:14;;;;;;;7.38;4.20;;;24.50;43.30;;;;;;6149532;28;81520;-65
2021/11/23 09:02:15;;;;;;;6.50;3.70;;;24.60;43.20;;;;;;6152980;28;80501;-65
2021/11/23 09:05:15;;;;;;;6.28;3.40;;;24.60;43.40;;;;;;6147725;28;80531;-64
2021/11/23 09:08:16;;;;;;;6.28;3.42;;;24.70;43.70;;;;;;6150973;28;80651;-66
2021/11/23 09:11:16;;;;;;;7.38;3.72;;;24.70;43.40;;;;;;6148707;28;80892;-65
2021/11/23 09:14:17;;;;;;;5.78;3.65;;;24.80;43.20;;;;;;6142246;28;83193;-64
2021/11/23 09:17:17;;;;;;;7.25;4.18;;;24.90;43.50;;;;;;6146551;28;82276;-64
2021/11/23 09:20:18;;;;;;;7.97;3.85;;;24.90;43.20;;;;;;6149672;28;80889;-64
2021/11/23 09:23:19;;;;;;;8.18;3.67;;;25.00;43.10;;;;;;6150184;28;80894;-64
2021/11/23 09:26:19;;;;;;;5.78;3.05;;;25.10;43.50;;;;;;6149216;28;87737;-65
2021/11/23 09:29:20;;;;;;;6.22;3.53;;;25.10;43.00;;;;;;6148716;28;87804;-64
2021/11/23 09:32:20;;;;;;;10.43;4.53;;;25.20;42.50;;;;;;6150270;28;80924;-65
2021/11/23 09:35:22;;;;;;;8.65;3.30;;;25.20;42.60;;;;;;6154906;28;80724;-65
2021/11/23 09:38:22;;;;;;;6.82;3.33;;;25.30;42.70;;;;;;6152262;28;80417;-66
2021/11/23 09:41:23;;;;;;;5.70;3.60;;;25.40;42.70;;;;;;6155690;28;80896;-65
2021/11/23 09:44:25;;;;;;;5.45;3.20;;;25.40;42.60;;;;;;6152619;28;80244;-65
2021/11/23 09:47:27;;;;;;;5.18;3.50;;;25.50;42.80;;;;;;6154768;28;80778;-65
2021/11/23 09:50:27;;;;;;;8.50;3.67;;;25.50;42.90;;;;;;6156675;28;80572;-64
2021/11/23 09:53:28;;;;;;;6.45;3.17;;;25.60;42.90;;;;;;6150532;28;80358;-65
2021/11/23 09:56:28;;;;;;;5.30;3.08;;;25.70;42.80;;;;;;6152644;28;80768;-65
2021/11/23 09:59:29;;;;;;;4.88;3.20;;;25.70;42.80;;;;;;6153863;28;81507;-64
2021/11/23 10:02:29;;;;;;;8.15;3.40;;;25.80;42.60;;;;;;6150948;28;80701;-65
2021/11/23 10:05:30;;;;;;;5.00;3.22;;;25.90;43.00;;;;;;6149306;28;81217;-67
2021/11/23 10:08:30;;;;;;;4.70;2.83;;;25.90;43.30;;;;;;6150943;28;80594;-65
2021/11/23 10:11:31;;;;;;;4.10;2.88;;;26.00;43.30;;;;;;6148969;28;80786;-67
2021/11/23 10:14:34;;;;;;;4.05;2.63;;;26.00;43.20;;;;;;6146604;28;82297;-66
2021/11/23 10:17:35;;;;;;;5.38;3.20;;;26.10;43.40;;;;;;6151772;28;81038;-66
2021/11/23 10:20:35;;;;;;;6.93;2.90;;;26.20;43.20;;;;;;6152381;28;80799;-65
2021/11/23 10:23:36;;;;;;;5.03;3.13;;;26.20;43.40;;;;;;6152877;28;80467;-65
2021/11/23 10:26:36;;;;;;;3.95;2.50;;;26.30;44.50;;;;;;6150238;28;82034;-65
2021/11/23 10:29:37;;;;;;;4.53;2.70;;;26.30;44.20;;;;;;6153210;28;81084;-65
2021/11/23 10:32:37;;;;;;;4.75;2.75;;;26.40;44.20;;;;;;6153466;28;81026;-65
2021/11/23 10:35:38;;;;;;;5.28;2.33;;;26.40;44.20;;;;;;6152496;28;80608;-66
2021/11/23 10:38:39;;;;;;;14.60;2.83;;;26.40;44.20;;;;;;6150002;28;80869;-65
2021/11/23 10:41:39;;;;;;;4.40;2.75;;;26.40;44.10;;;;;;6144032;28;80827;-65
2021/11/23 10:44:40;;;;;;;4.85;2.65;;;26.50;44.90;;;;;;6148069;28;80944;-65
2021/11/23 10:47:40;;;;;;;4.72;2.60;;;26.60;44.30;;;;;;6149101;28;80525;-64
2021/11/23 10:50:41;;;;;;;18.25;7.95;;;26.50;44.20;;;;;;6152862;28;80966;-66
2021/11/23 10:53:42;;;;;;;63.95;26.17;;;26.60;44.10;;;;;;6148421;28;80840;-65
2021/11/23 10:56:43;;;;;;;127.93;53.15;;;26.60;43.90;;;;;;6146847;28;83587;-66
2021/11/23 10:59:43;;;;;;;181.10;74.03;;;26.60;44.10;;;;;;6153806;28;83944;-66
2021/11/23 11:02:44;;;;;;;180.52;79.28;;;26.60;44.00;;;;;;6146650;28;83054;-66
2021/11/23 11:05:45;;;;;;;176.63;66.85;;;26.50;44.30;;;;;;6148342;28;84376;-66
2021/11/23 11:08:45;;;;;;;135.60;57.35;;;26.40;44.30;;;;;;6147717;28;83151;-67
2021/11/23 11:11:46;;;;;;;126.15;53.00;;;26.40;44.60;;;;;;6143413;28;83640;-67
2021/11/23 11:14:46;;;;;;;103.93;44.50;;;26.40;44.60;;;;;;6148521;28;83020;-66
2021/11/23 11:17:47;;;;;;;106.35;42.65;;;26.30;44.50;;;;;;6145541;28;83445;-65
2021/11/23 11:20:49;;;;;;;90.22;37.63;;;26.30;44.40;;;;;;6148333;28;83432;-65
2021/11/23 11:23:53;;;;;;;94.63;37.00;;;26.30;44.10;;;;;;6145336;28;82967;-66
2021/11/23 11:27:01;;;;;;;76.70;34.67;;;26.40;44.00;;;;;;6145988;28;83918;-66
2021/11/23 11:30:01;;;;;;;76.47;30.65;;;26.50;43.80;;;;;;6140940;28;83027;-65
2021/11/23 11:33:02;;;;;;;80.45;28.58;;;26.50;43.60;;;;;;6144295;28;87727;-65
2021/11/23 11:36:02;;;;;;;69.93;29.17;;;26.50;43.50;;;;;;6144428;28;83355;-65
2021/11/23 11:39:03;;;;;;;56.40;24.27;;;26.60;43.50;;;;;;6148126;28;83022;-65
2021/11/23 11:42:03;;;;;;;63.72;24.90;;;26.60;43.30;;;;;;6147566;28;83168;-65
2021/11/23 11:45:05;;;;;;;49.92;22.90;;;26.60;43.10;;;;;;6148660;28;84145;-65
2021/11/23 11:48:06;;;;;;;57.28;22.60;;;26.70;43.00;;;;;;6147338;28;83584;-66
2021/11/23 11:51:06;;;;;;;45.45;20.40;;;26.70;42.90;;;;;;6142904;28;83407;-66
2021/11/23 11:54:07;;;;;;;44.03;19.40;;;26.70;42.70;;;;;;6144508;28;83657;-66
2021/11/23 11:57:07;;;;;;;41.90;19.63;;;26.70;42.60;;;;;;6144749;28;84609;-66
2021/11/23 12:00:08;;;;;;;44.03;18.60;;;26.70;42.50;;;;;;6145442;28;83409;-66
2021/11/23 12:03:10;;;;;;;32.33;16.42;;;26.70;42.40;;;;;;6145132;28;85071;-66
2021/11/23 12:06:13;;;;;;;30.88;14.70;;;26.70;42.60;;;;;;6151196;28;83102;-66
2021/11/23 12:09:13;;;;;;;35.85;15.55;;;26.60;42.50;;;;;;6130002;28;84490;-65
2021/11/23 12:12:14;;;;;;;28.10;14.30;;;26.60;42.50;;;;;;6148638;28;83147;-65
2021/11/23 12:15:14;;;;;;;27.77;13.38;;;26.60;42.30;;;;;;6146003;28;83534;-65
2021/11/23 12:18:15;;;;;;;24.15;12.23;;;26.70;42.40;;;;;;6144696;28;86035;-65
2021/11/23 12:21:16;;;;;;;25.67;10.48;;;26.60;42.20;;;;;;6142847;28;83260;-65
2021/11/23 12:24:16;;;;;;;19.55;9.27;;;26.40;42.80;;;;;;6149211;28;83571;-65
2021/11/23 12:27:17;;;;;;;17.70;9.25;;;26.30;42.20;;;;;;6149614;28;84189;-64
2021/11/23 12:30:18;;;;;;;19.35;8.88;;;26.10;42.00;;;;;;6147295;28;80341;-64
2021/11/23 12:33:19;;;;;;;17.17;8.77;;;26.00;42.60;;;;;;6144553;28;81594;-65
2021/11/23 12:36:21;;;;;;;17.48;7.43;;;25.90;41.50;;;;;;6141932;28;80971;-65
2021/11/23 12:39:22;;;;;;;17.85;8.25;;;25.80;41.20;;;;;;6153112;28;81637;-64
2021/11/23 12:42:22;;;;;;;20.73;8.45;;;25.70;41.20;;;;;;6147567;28;80771;-65
2021/11/23 12:45:23;;;;;;;15.80;7.65;;;25.60;40.90;;;;;;6151328;28;80208;-65
2021/11/23 12:48:23;;;;;;;14.73;8.15;;;25.60;41.10;;;;;;6147376;28;80089;-64
2021/11/23 12:51:24;;;;;;;16.38;7.45;;;25.50;42.10;;;;;;6147238;28;80559;-64
2021/11/23 12:54:25;;;;;;;19.30;8.38;;;25.50;42.20;;;;;;6151086;28;81681;-64
2021/11/23 12:57:25;;;;;;;13.50;6.63;;;25.50;42.40;;;;;;6151656;28;81496;-65
2021/11/23 13:00:26;;;;;;;11.35;6.40;;;25.40;42.40;;;;;;6150288;28;82516;-64
2021/11/23 13:03:26;;;;;;;18.08;7.93;;;25.50;42.20;;;;;;6149575;28;80314;-62
2021/11/23 13:06:27;;;;;;;17.33;7.18;;;25.50;43.10;;;;;;6151650;28;80619;-64
2021/11/23 13:09:28;;;;;;;19.52;7.47;;;25.70;42.60;;;;;;6148482;28;80335;-63
2021/11/23 13:12:29;;;;;;;15.63;6.97;;;25.70;42.40;;;;;;6156689;28;80775;-65
2021/11/23 13:15:29;;;;;;;16.48;7.57;;;25.80;41.80;;;;;;6153855;28;81404;-64
2021/11/23 13:18:30;;;;;;;17.30;7.68;;;25.80;41.30;;;;;;6151122;28;81699;-64
2021/11/23 13:21:31;;;;;;;15.25;7.03;;;25.80;41.10;;;;;;6148818;28;81325;-64
2021/11/23 13:24:31;;;;;;;14.90;7.20;;;25.80;41.00;;;;;;6151643;28;81424;-64
2021/11/23 13:27:32;;;;;;;16.05;6.95;;;25.70;40.20;;;;;;6151316;28;81003;-64
2021/11/23 13:30:33;;;;;;;14.30;6.82;;;25.80;40.30;;;;;;6153905;28;80938;-64
2021/11/23 13:33:33;;;;;;;11.75;5.90;;;25.70;39.80;;;;;;6151913;28;81169;-64
2021/11/23 13:36:34;;;;;;;11.88;5.90;;;25.50;39.60;;;;;;6151969;28;81997;-65
2021/11/23 13:39:36;;;;;;;9.35;5.45;;;25.50;39.50;;;;;;6154394;28;81851;-64
2021/11/23 13:42:36;;;;;;;13.50;5.93;;;25.40;39.40;;;;;;6149301;28;81201;-64
2021/11/23 13:45:37;;;;;;;8.35;4.72;;;25.30;39.20;;;;;;6154677;28;80472;-64
2021/11/23 13:48:37;;;;;;;11.40;5.63;;;25.20;39.00;;;;;;6149118;28;80537;-64
2021/11/23 13:51:38;;;;;;;11.98;5.45;;;25.20;39.00;;;;;;6154324;28;80651;-64
2021/11/23 13:54:39;;;;;;;12.82;4.95;;;25.10;38.80;;;;;;6150158;28;80325;-64
2021/11/23 13:57:39;;;;;;;8.25;5.03;;;25.10;38.80;;;;;;6150585;28;80636;-64
2021/11/23 14:00:40;;;;;;;10.35;4.82;;;25.00;38.80;;;;;;6152831;28;81571;-64
2021/11/23 14:03:40;;;;;;;11.35;5.30;;;24.90;38.80;;;;;;6152343;28;80702;-64
2021/11/23 14:06:41;;;;;;;8.50;4.80;;;24.90;38.60;;;;;;6152124;28;80603;-64
2021/11/23 14:09:41;;;;;;;8.32;4.70;;;24.90;38.50;;;;;;6147722;28;81187;-64
2021/11/23 14:12:43;;;;;;;8.50;4.70;;;24.80;38.70;;;;;;6149240;28;81843;-64
2021/11/23 14:15:44;;;;;;;9.50;5.07;;;24.80;38.50;;;;;;6147643;28;80961;-64
2021/11/23 14:18:48;;;;;;;9.35;5.22;;;24.70;38.70;;;;;;6154617;28;80586;-64
2021/11/23 14:21:48;;;;;;;8.27;4.97;;;24.70;38.50;;;;;;6153096;28;80284;-64
2021/11/23 14:24:50;;;;;;;8.50;4.57;;;24.70;38.70;;;;;;6148561;28;80516;-64
2021/11/23 14:27:51;;;;;;;8.05;4.80;;;24.60;38.60;;;;;;6151542;28;80263;-67
2021/11/23 14:30:52;;;;;;;7.65;4.25;;;24.60;38.80;;;;;;6148519;28;80752;-64
2021/11/23 14:33:52;;;;;;;8.80;4.57;;;24.60;39.00;;;;;;6152714;28;80960;-64
2021/11/23 14:36:53;;;;;;;8.68;4.78;;;24.60;38.90;;;;;;6147044;28;83551;-63
2021/11/23 14:39:55;;;;;;;9.57;4.90;;;24.60;39.00;;;;;;6151443;28;80393;-64
2021/11/23 14:42:55;;;;;;;7.93;4.15;;;24.50;38.80;;;;;;6156366;28;80671;-64
2021/11/23 14:45:56;;;;;;;9.23;4.97;;;24.50;39.00;;;;;;6154919;28;82295;-64
2021/11/23 14:48:56;;;;;;;7.30;4.18;;;24.50;39.60;;;;;;6152813;28;80281;-64
2021/11/23 14:51:57;;;;;;;16.70;4.90;;;24.50;39.10;;;;;;6154886;28;80884;-64
2021/11/23 14:54:59;;;;;;;8.35;4.82;;;24.40;39.10;;;;;;6155483;28;80823;-65
2021/11/23 14:57:59;;;;;;;7.82;4.53;;;24.40;39.00;;;;;;6150183;28;81418;-64
2021/11/23 15:01:00;;;;;;;7.68;4.45;;;24.40;39.20;;;;;;6151374;28;81520;-64
2021/11/23 15:04:00;;;;;;;9.60;5.05;;;24.40;39.10;;;;;;6152046;28;81873;-65
2021/11/23 15:07:01;;;;;;;7.75;4.07;;;24.40;39.30;;;;;;6150447;28;80818;-64
2021/11/23 15:10:02;;;;;;;7.63;4.25;;;24.40;39.10;;;;;;6153486;28;80637;-64
2021/11/23 15:13:02;;;;;;;8.93;4.68;;;24.30;39.10;;;;;;6151563;28;80983;-64
2021/11/23 15:16:03;;;;;;;7.95;3.95;;;24.40;39.20;;;;;;6150252;28;80690;-64
2021/11/23 15:19:03;;;;;;;8.45;5.05;;;24.40;39.30;;;;;;6147996;28;80664;-64
2021/11/23 15:22:04;;;;;;;9.88;4.82;;;24.30;39.20;;;;;;6149467;28;81733;-64
2021/11/23 15:25:06;;;;;;;7.43;4.50;;;24.30;39.30;;;;;;6149315;28;80794;-62
2021/11/23 15:28:07;;;;;;;8.05;4.30;;;24.30;39.30;;;;;;6152410;28;81138;-65
2021/11/23 15:31:09;;;;;;;12.38;4.18;;;24.30;39.20;;;;;;6149648;28;80874;-63